sensor_id;sensor_type;location;lat;lon;timestamp;P1;durP1;ratioP1;P2;durP2;ratioP2
23718;SDS011;43322;52.230;5.702;2023-12-20T00:02:02;11.45;;;3.00;;
23718;SDS011;43322;52.230;5.702;2023-12-20T00:04:30;9.70;;;2.42;;
23718;SDS011;43322;52.230;5.702;2023-12-20T00:06:56;26.77;;;3.90;;
23718;SDS011;43322;52.230;5.702;2023-12-20T00:09:23;11.52;;;2.92;;
23718;SDS011;43322;52.230;5.702;2023-12-20T00:11:50;18.98;;;3.10;;
23718;SDS011;43322;52.230;5.702;2023-12-20T00:14:17;12.38;;;2.90;;
23718;SDS011;43322;52.230;5.702;2023-12-20T00:16:46;7.28;;;2.70;;
23718;SDS011;43322;52.230;5.702;2023-12-20T00:19:13;11.70;;;3.03;;
23718;SDS011;43322;52.230;5.702;2023-12-20T00:21:40;12.02;;;2.65;;
23718;SDS011;43322;52.230;5.702;2023-12-20T00:24:07;11.63;;;2.65;;
23718;SDS011;43322;52.230;5.702;2023-12-20T00:26:34;13.75;;;2.95;;
23718;SDS011;43322;52.230;5.702;2023-12-20T00:29:01;12.68;;;2.63;;
23718;SDS011;43322;52.230;5.702;2023-12-20T00:31:28;11.30;;;2.78;;
23718;SDS011;43322;52.230;5.702;2023-12-20T00:33:56;12.63;;;2.67;;
23718;SDS011;43322;52.230;5.702;2023-12-20T00:36:23;12.70;;;2.60;;
23718;SDS011;43322;52.230;5.702;2023-12-20T00:38:50;16.15;;;3.08;;
23718;SDS011;43322;52.230;5.702;2023-12-20T00:41:17;14.85;;;3.85;;
23718;SDS011;43322;52.230;5.702;2023-12-20T00:43:44;12.80;;;2.67;;
23718;SDS011;43322;52.230;5.702;2023-12-20T00:46:11;11.32;;;2.50;;
23718;SDS011;43322;52.230;5.702;2023-12-20T00:48:39;22.35;;;3.13;;
23718;SDS011;43322;52.230;5.702;2023-12-20T00:51:08;13.73;;;2.97;;
23718;SDS011;43322;52.230;5.702;2023-12-20T00:53:35;16.42;;;3.00;;
23718;SDS011;43322;52.230;5.702;2023-12-20T00:56:02;19.42;;;3.40;;
23718;SDS011;43322;52.230;5.702;2023-12-20T00:58:29;10.95;;;2.65;;
23718;SDS011;43322;52.230;5.702;2023-12-20T01:00:57;13.65;;;3.20;;
23718;SDS011;43322;52.230;5.702;2023-12-20T01:03:24;16.27;;;3.03;;
23718;SDS011;43322;52.230;5.702;2023-12-20T01:05:51;18.15;;;3.35;;
23718;SDS011;43322;52.230;5.702;2023-12-20T01:08:19;12.18;;;2.80;;
23718;SDS011;43322;52.230;5.702;2023-12-20T01:10:46;14.90;;;3.13;;
23718;SDS011;43322;52.230;5.702;2023-12-20T01:13:13;13.00;;;2.88;;
23718;SDS011;43322;52.230;5.702;2023-12-20T01:15:40;9.20;;;2.97;;
23718;SDS011;43322;52.230;5.702;2023-12-20T01:18:07;15.25;;;2.65;;
23718;SDS011;43322;52.230;5.702;2023-12-20T01:20:34;13.90;;;2.78;;
23718;SDS011;43322;52.230;5.702;2023-12-20T01:23:01;13.00;;;2.65;;
23718;SDS011;43322;52.230;5.702;2023-12-20T01:25:29;12.15;;;2.67;;
23718;SDS011;43322;52.230;5.702;2023-12-20T01:27:56;18.73;;;2.50;;
23718;SDS011;43322;52.230;5.702;2023-12-20T01:30:23;12.90;;;2.80;;
23718;SDS011;43322;52.230;5.702;2023-12-20T01:32:50;11.57;;;2.72;;
23718;SDS011;43322;52.230;5.702;2023-12-20T01:35:17;17.42;;;2.60;;
23718;SDS011;43322;52.230;5.702;2023-12-20T01:37:44;7.20;;;2.40;;
23718;SDS011;43322;52.230;5.702;2023-12-20T01:40:11;19.30;;;3.08;;
23718;SDS011;43322;52.230;5.702;2023-12-20T01:42:40;15.98;;;3.17;;
23718;SDS011;43322;52.230;5.702;2023-12-20T01:45:08;16.48;;;3.05;;
23718;SDS011;43322;52.230;5.702;2023-12-20T01:47:35;18.48;;;3.10;;
23718;SDS011;43322;52.230;5.702;2023-12-20T01:50:02;17.45;;;3.17;;
23718;SDS011;43322;52.230;5.702;2023-12-20T01:52:33;15.23;;;2.63;;
23718;SDS011;43322;52.230;5.702;2023-12-20T01:55:01;22.40;;;2.95;;
23718;SDS011;43322;52.230;5.702;2023-12-20T01:57:31;11.98;;;2.55;;
23718;SDS011;43322;52.230;5.702;2023-12-20T02:00:00;15.50;;;3.22;;
23718;SDS011;43322;52.230;5.702;2023-12-20T02:02:28;13.85;;;3.05;;
23718;SDS011;43322;52.230;5.702;2023-12-20T02:04:56;15.70;;;3.13;;
23718;SDS011;43322;52.230;5.702;2023-12-20T02:07:23;17.98;;;3.40;;
23718;SDS011;43322;52.230;5.702;2023-12-20T02:09:50;24.58;;;3.20;;
23718;SDS011;43322;52.230;5.702;2023-12-20T02:12:18;14.52;;;2.80;;
23718;SDS011;43322;52.230;5.702;2023-12-20T02:14:45;13.55;;;3.05;;
23718;SDS011;43322;52.230;5.702;2023-12-20T02:17:14;20.58;;;3.25;;
23718;SDS011;43322;52.230;5.702;2023-12-20T02:19:40;19.58;;;3.28;;
23718;SDS011;43322;52.230;5.702;2023-12-20T02:22:10;17.58;;;3.63;;
23718;SDS011;43322;52.230;5.702;2023-12-20T02:24:37;18.40;;;3.42;;
23718;SDS011;43322;52.230;5.702;2023-12-20T02:27:05;21.13;;;3.70;;
23718;SDS011;43322;52.230;5.702;2023-12-20T02:29:33;11.13;;;3.70;;
23718;SDS011;43322;52.230;5.702;2023-12-20T02:32:01;15.20;;;3.58;;
23718;SDS011;43322;52.230;5.702;2023-12-20T02:34:29;28.08;;;3.50;;
23718;SDS011;43322;52.230;5.702;2023-12-20T02:36:56;21.50;;;3.58;;
23718;SDS011;43322;52.230;5.702;2023-12-20T02:39:24;30.63;;;4.50;;
23718;SDS011;43322;52.230;5.702;2023-12-20T02:41:51;21.35;;;5.22;;
23718;SDS011;43322;52.230;5.702;2023-12-20T02:44:18;15.40;;;3.00;;
23718;SDS011;43322;52.230;5.702;2023-12-20T02:46:45;24.00;;;4.00;;
23718;SDS011;43322;52.230;5.702;2023-12-20T02:49:12;19.13;;;4.40;;
23718;SDS011;43322;52.230;5.702;2023-12-20T02:51:39;14.70;;;4.13;;
23718;SDS011;43322;52.230;5.702;2023-12-20T02:54:06;27.73;;;4.30;;
23718;SDS011;43322;52.230;5.702;2023-12-20T02:56:35;23.15;;;3.78;;
23718;SDS011;43322;52.230;5.702;2023-12-20T02:59:02;14.95;;;3.45;;
23718;SDS011;43322;52.230;5.702;2023-12-20T03:01:30;24.05;;;4.00;;
23718;SDS011;43322;52.230;5.702;2023-12-20T03:03:57;21.83;;;4.00;;
23718;SDS011;43322;52.230;5.702;2023-12-20T03:06:23;23.08;;;4.00;;
23718;SDS011;43322;52.230;5.702;2023-12-20T03:08:51;23.95;;;3.67;;
23718;SDS011;43322;52.230;5.702;2023-12-20T03:11:18;24.80;;;3.72;;
23718;SDS011;43322;52.230;5.702;2023-12-20T03:13:46;21.88;;;3.33;;
23718;SDS011;43322;52.230;5.702;2023-12-20T03:16:13;17.75;;;3.95;;
23718;SDS011;43322;52.230;5.702;2023-12-20T03:18:41;20.02;;;4.13;;
23718;SDS011;43322;52.230;5.702;2023-12-20T03:21:08;19.25;;;3.63;;
23718;SDS011;43322;52.230;5.702;2023-12-20T03:23:35;24.45;;;3.80;;
23718;SDS011;43322;52.230;5.702;2023-12-20T03:26:02;36.22;;;4.88;;
23718;SDS011;43322;52.230;5.702;2023-12-20T03:28:29;18.52;;;4.32;;
23718;SDS011;43322;52.230;5.702;2023-12-20T03:30:58;19.20;;;5.10;;
23718;SDS011;43322;52.230;5.702;2023-12-20T03:33:25;16.95;;;4.15;;
23718;SDS011;43322;52.230;5.702;2023-12-20T03:35:51;21.27;;;4.13;;
23718;SDS011;43322;52.230;5.702;2023-12-20T03:38:18;27.10;;;4.75;;
23718;SDS011;43322;52.230;5.702;2023-12-20T03:40:45;25.35;;;5.05;;
23718;SDS011;43322;52.230;5.702;2023-12-20T03:43:12;23.83;;;3.88;;
23718;SDS011;43322;52.230;5.702;2023-12-20T03:45:39;23.52;;;3.92;;
23718;SDS011;43322;52.230;5.702;2023-12-20T03:48:08;27.98;;;4.35;;
23718;SDS011;43322;52.230;5.702;2023-12-20T03:50:35;13.05;;;3.92;;
23718;SDS011;43322;52.230;5.702;2023-12-20T03:53:02;25.52;;;3.85;;
23718;SDS011;43322;52.230;5.702;2023-12-20T03:55:29;20.63;;;3.83;;
23718;SDS011;43322;52.230;5.702;2023-12-20T03:57:56;20.65;;;4.38;;
23718;SDS011;43322;52.230;5.702;2023-12-20T04:00:23;22.02;;;3.45;;
23718;SDS011;43322;52.230;5.702;2023-12-20T04:02:50;28.23;;;4.65;;
23718;SDS011;43322;52.230;5.702;2023-12-20T04:05:19;21.05;;;4.35;;
23718;SDS011;43322;52.230;5.702;2023-12-20T04:07:46;20.80;;;4.40;;
23718;SDS011;43322;52.230;5.702;2023-12-20T04:10:13;27.10;;;4.15;;
23718;SDS011;43322;52.230;5.702;2023-12-20T04:12:39;21.38;;;4.28;;
23718;SDS011;43322;52.230;5.702;2023-12-20T04:15:07;28.80;;;4.38;;
23718;SDS011;43322;52.230;5.702;2023-12-20T04:17:37;24.50;;;4.20;;
23718;SDS011;43322;52.230;5.702;2023-12-20T04:20:04;27.67;;;4.07;;
23718;SDS011;43322;52.230;5.702;2023-12-20T04:22:33;26.88;;;4.60;;
23718;SDS011;43322;52.230;5.702;2023-12-20T04:25:00;18.42;;;3.92;;
23718;SDS011;43322;52.230;5.702;2023-12-20T04:27:27;21.40;;;3.95;;
23718;SDS011;43322;52.230;5.702;2023-12-20T04:29:54;20.45;;;4.32;;
23718;SDS011;43322;52.230;5.702;2023-12-20T04:32:21;19.55;;;4.20;;
23718;SDS011;43322;52.230;5.702;2023-12-20T04:34:47;22.63;;;4.13;;
23718;SDS011;43322;52.230;5.702;2023-12-20T04:37:14;23.00;;;4.63;;
23718;SDS011;43322;52.230;5.702;2023-12-20T04:39:43;24.98;;;4.50;;
23718;SDS011;43322;52.230;5.702;2023-12-20T04:42:10;27.17;;;3.50;;
23718;SDS011;43322;52.230;5.702;2023-12-20T04:44:37;22.40;;;4.10;;
23718;SDS011;43322;52.230;5.702;2023-12-20T04:47:04;32.47;;;4.25;;
23718;SDS011;43322;52.230;5.702;2023-12-20T04:49:31;25.02;;;4.32;;
23718;SDS011;43322;52.230;5.702;2023-12-20T04:51:58;26.25;;;5.00;;
23718;SDS011;43322;52.230;5.702;2023-12-20T04:54:25;18.90;;;4.05;;
23718;SDS011;43322;52.230;5.702;2023-12-20T04:56:53;23.95;;;4.15;;
23718;SDS011;43322;52.230;5.702;2023-12-20T04:59:20;21.85;;;4.03;;
23718;SDS011;43322;52.230;5.702;2023-12-20T05:01:47;28.83;;;4.15;;
23718;SDS011;43322;52.230;5.702;2023-12-20T05:04:14;27.88;;;4.57;;
23718;SDS011;43322;52.230;5.702;2023-12-20T05:06:40;26.05;;;4.03;;
23718;SDS011;43322;52.230;5.702;2023-12-20T05:09:07;20.90;;;4.63;;
23718;SDS011;43322;52.230;5.702;2023-12-20T05:11:35;27.95;;;4.45;;
23718;SDS011;43322;52.230;5.702;2023-12-20T05:14:03;28.23;;;4.90;;
23718;SDS011;43322;52.230;5.702;2023-12-20T05:16:30;21.08;;;3.75;;
23718;SDS011;43322;52.230;5.702;2023-12-20T05:18:57;24.42;;;4.28;;
23718;SDS011;43322;52.230;5.702;2023-12-20T05:21:25;21.17;;;3.88;;
23718;SDS011;43322;52.230;5.702;2023-12-20T05:23:52;16.98;;;3.65;;
23718;SDS011;43322;52.230;5.702;2023-12-20T05:26:19;28.83;;;5.40;;
23718;SDS011;43322;52.230;5.702;2023-12-20T05:28:46;26.63;;;4.68;;
23718;SDS011;43322;52.230;5.702;2023-12-20T05:31:14;23.40;;;4.35;;
23718;SDS011;43322;52.230;5.702;2023-12-20T05:33:41;23.60;;;4.80;;
23718;SDS011;43322;52.230;5.702;2023-12-20T05:36:08;19.17;;;4.45;;
23718;SDS011;43322;52.230;5.702;2023-12-20T05:38:38;27.63;;;3.60;;
23718;SDS011;43322;52.230;5.702;2023-12-20T05:41:05;26.30;;;4.47;;
23718;SDS011;43322;52.230;5.702;2023-12-20T05:43:32;22.70;;;4.63;;
23718;SDS011;43322;52.230;5.702;2023-12-20T05:45:59;22.92;;;4.07;;
23718;SDS011;43322;52.230;5.702;2023-12-20T05:48:27;21.00;;;3.85;;
23718;SDS011;43322;52.230;5.702;2023-12-20T05:50:54;14.95;;;3.42;;
23718;SDS011;43322;52.230;5.702;2023-12-20T05:53:21;28.83;;;4.85;;
23718;SDS011;43322;52.230;5.702;2023-12-20T05:55:48;25.33;;;4.03;;
23718;SDS011;43322;52.230;5.702;2023-12-20T05:58:15;23.65;;;4.13;;
23718;SDS011;43322;52.230;5.702;2023-12-20T06:00:42;23.80;;;4.70;;
23718;SDS011;43322;52.230;5.702;2023-12-20T06:03:09;14.98;;;3.35;;
23718;SDS011;43322;52.230;5.702;2023-12-20T06:05:37;14.77;;;4.10;;
23718;SDS011;43322;52.230;5.702;2023-12-20T06:08:04;24.02;;;4.40;;
23718;SDS011;43322;52.230;5.702;2023-12-20T06:10:31;22.42;;;4.93;;
23718;SDS011;43322;52.230;5.702;2023-12-20T06:12:58;29.13;;;5.22;;
23718;SDS011;43322;52.230;5.702;2023-12-20T06:15:25;19.65;;;4.65;;
23718;SDS011;43322;52.230;5.702;2023-12-20T06:17:52;20.45;;;4.40;;
23718;SDS011;43322;52.230;5.702;2023-12-20T06:20:19;16.65;;;3.85;;
23718;SDS011;43322;52.230;5.702;2023-12-20T06:22:47;23.88;;;4.28;;
23718;SDS011;43322;52.230;5.702;2023-12-20T06:25:14;21.27;;;4.28;;
23718;SDS011;43322;52.230;5.702;2023-12-20T06:27:41;31.25;;;4.90;;
23718;SDS011;43322;52.230;5.702;2023-12-20T06:30:08;24.00;;;4.68;;
23718;SDS011;43322;52.230;5.702;2023-12-20T06:32:36;24.48;;;3.88;;
23718;SDS011;43322;52.230;5.702;2023-12-20T06:35:04;25.35;;;4.55;;
23718;SDS011;43322;52.230;5.702;2023-12-20T06:37:32;17.20;;;4.45;;
23718;SDS011;43322;52.230;5.702;2023-12-20T06:40:00;22.30;;;4.70;;
23718;SDS011;43322;52.230;5.702;2023-12-20T06:42:27;20.35;;;4.18;;
23718;SDS011;43322;52.230;5.702;2023-12-20T06:44:54;24.13;;;3.63;;
23718;SDS011;43322;52.230;5.702;2023-12-20T06:47:21;19.80;;;4.03;;
23718;SDS011;43322;52.230;5.702;2023-12-20T06:49:48;23.65;;;4.28;;
23718;SDS011;43322;52.230;5.702;2023-12-20T06:52:15;18.67;;;3.65;;
23718;SDS011;43322;52.230;5.702;2023-12-20T06:54:42;18.15;;;4.07;;
23718;SDS011;43322;52.230;5.702;2023-12-20T06:57:10;25.80;;;5.00;;
23718;SDS011;43322;52.230;5.702;2023-12-20T06:59:38;20.58;;;3.33;;
23718;SDS011;43322;52.230;5.702;2023-12-20T07:02:05;24.98;;;3.75;;
23718;SDS011;43322;52.230;5.702;2023-12-20T07:04:32;18.08;;;3.88;;
23718;SDS011;43322;52.230;5.702;2023-12-20T07:06:59;17.95;;;4.43;;
23718;SDS011;43322;52.230;5.702;2023-12-20T07:09:26;15.43;;;3.60;;
23718;SDS011;43322;52.230;5.702;2023-12-20T07:11:53;29.30;;;4.60;;
23718;SDS011;43322;52.230;5.702;2023-12-20T07:14:21;22.90;;;3.90;;
23718;SDS011;43322;52.230;5.702;2023-12-20T07:16:48;24.77;;;4.18;;
23718;SDS011;43322;52.230;5.702;2023-12-20T07:19:15;25.35;;;4.05;;
23718;SDS011;43322;52.230;5.702;2023-12-20T07:21:42;29.52;;;3.97;;
23718;SDS011;43322;52.230;5.702;2023-12-20T07:24:09;19.42;;;3.95;;
23718;SDS011;43322;52.230;5.702;2023-12-20T07:26:36;22.50;;;4.50;;
23718;SDS011;43322;52.230;5.702;2023-12-20T07:29:04;18.92;;;4.38;;
23718;SDS011;43322;52.230;5.702;2023-12-20T07:31:34;22.35;;;3.95;;
23718;SDS011;43322;52.230;5.702;2023-12-20T07:34:01;21.83;;;3.97;;
23718;SDS011;43322;52.230;5.702;2023-12-20T07:36:28;16.13;;;3.60;;
23718;SDS011;43322;52.230;5.702;2023-12-20T07:38:55;25.92;;;4.47;;
23718;SDS011;43322;52.230;5.702;2023-12-20T07:41:22;22.23;;;3.83;;
23718;SDS011;43322;52.230;5.702;2023-12-20T07:43:48;20.33;;;4.20;;
23718;SDS011;43322;52.230;5.702;2023-12-20T07:46:16;22.52;;;4.53;;
23718;SDS011;43322;52.230;5.702;2023-12-20T07:48:45;20.83;;;4.72;;
23718;SDS011;43322;52.230;5.702;2023-12-20T07:51:12;23.98;;;4.05;;
23718;SDS011;43322;52.230;5.702;2023-12-20T07:53:39;28.67;;;4.45;;
23718;SDS011;43322;52.230;5.702;2023-12-20T07:56:13;24.75;;;4.07;;
23718;SDS011;43322;52.230;5.702;2023-12-20T07:58:41;24.27;;;4.03;;
23718;SDS011;43322;52.230;5.702;2023-12-20T08:01:08;21.75;;;4.90;;
23718;SDS011;43322;52.230;5.702;2023-12-20T08:03:36;21.20;;;4.45;;
23718;SDS011;43322;52.230;5.702;2023-12-20T08:06:07;25.02;;;5.40;;
23718;SDS011;43322;52.230;5.702;2023-12-20T08:08:34;20.95;;;4.30;;
23718;SDS011;43322;52.230;5.702;2023-12-20T08:11:01;16.90;;;3.53;;
23718;SDS011;43322;52.230;5.702;2023-12-20T08:13:28;24.10;;;4.35;;
23718;SDS011;43322;52.230;5.702;2023-12-20T08:15:55;30.00;;;4.68;;
23718;SDS011;43322;52.230;5.702;2023-12-20T08:18:22;18.63;;;4.10;;
23718;SDS011;43322;52.230;5.702;2023-12-20T08:20:49;31.55;;;4.60;;
23718;SDS011;43322;52.230;5.702;2023-12-20T08:23:19;22.58;;;4.25;;
23718;SDS011;43322;52.230;5.702;2023-12-20T08:25:46;24.33;;;4.05;;
23718;SDS011;43322;52.230;5.702;2023-12-20T08:28:14;19.90;;;3.80;;
23718;SDS011;43322;52.230;5.702;2023-12-20T08:30:41;23.48;;;4.03;;
23718;SDS011;43322;52.230;5.702;2023-12-20T08:33:08;23.85;;;4.40;;
23718;SDS011;43322;52.230;5.702;2023-12-20T08:35:37;21.90;;;4.10;;
23718;SDS011;43322;52.230;5.702;2023-12-20T08:38:04;31.63;;;4.63;;
23718;SDS011;43322;52.230;5.702;2023-12-20T08:40:33;20.77;;;5.30;;
23718;SDS011;43322;52.230;5.702;2023-12-20T08:43:00;30.95;;;5.03;;
23718;SDS011;43322;52.230;5.702;2023-12-20T08:45:27;19.05;;;4.05;;
23718;SDS011;43322;52.230;5.702;2023-12-20T08:47:54;22.65;;;4.43;;
23718;SDS011;43322;52.230;5.702;2023-12-20T08:50:21;25.33;;;5.03;;
23718;SDS011;43322;52.230;5.702;2023-12-20T08:52:48;22.15;;;4.05;;
23718;SDS011;43322;52.230;5.702;2023-12-20T08:55:15;26.77;;;5.32;;
23718;SDS011;43322;52.230;5.702;2023-12-20T08:57:44;31.85;;;4.65;;
23718;SDS011;43322;52.230;5.702;2023-12-20T09:00:12;23.30;;;4.13;;
23718;SDS011;43322;52.230;5.702;2023-12-20T09:02:41;18.67;;;3.55;;
23718;SDS011;43322;52.230;5.702;2023-12-20T09:05:08;32.78;;;4.95;;
23718;SDS011;43322;52.230;5.702;2023-12-20T09:07:35;21.17;;;4.18;;
23718;SDS011;43322;52.230;5.702;2023-12-20T09:10:02;29.85;;;4.55;;
23718;SDS011;43322;52.230;5.702;2023-12-20T09:12:30;26.73;;;4.55;;
23718;SDS011;43322;52.230;5.702;2023-12-20T09:14:58;35.95;;;5.28;;
23718;SDS011;43322;52.230;5.702;2023-12-20T09:17:27;25.40;;;4.82;;
23718;SDS011;43322;52.230;5.702;2023-12-20T09:19:54;19.67;;;4.45;;
23718;SDS011;43322;52.230;5.702;2023-12-20T09:22:21;24.95;;;3.88;;
23718;SDS011;43322;52.230;5.702;2023-12-20T09:24:48;22.48;;;4.18;;
23718;SDS011;43322;52.230;5.702;2023-12-20T09:27:15;26.42;;;4.65;;
23718;SDS011;43322;52.230;5.702;2023-12-20T09:29:42;23.05;;;4.65;;
23718;SDS011;43322;52.230;5.702;2023-12-20T09:32:10;29.75;;;4.95;;
23718;SDS011;43322;52.230;5.702;2023-12-20T09:34:37;31.88;;;4.38;;
23718;SDS011;43322;52.230;5.702;2023-12-20T09:37:04;16.42;;;3.45;;
23718;SDS011;43322;52.230;5.702;2023-12-20T09:39:32;20.40;;;4.03;;
23718;SDS011;43322;52.230;5.702;2023-12-20T09:42:00;26.23;;;4.63;;
23718;SDS011;43322;52.230;5.702;2023-12-20T09:44:28;23.77;;;4.28;;
23718;SDS011;43322;52.230;5.702;2023-12-20T09:46:56;24.00;;;4.15;;
23718;SDS011;43322;52.230;5.702;2023-12-20T09:49:25;22.88;;;4.65;;
23718;SDS011;43322;52.230;5.702;2023-12-20T09:51:54;26.38;;;5.20;;
23718;SDS011;43322;52.230;5.702;2023-12-20T09:54:22;25.90;;;5.38;;
23718;SDS011;43322;52.230;5.702;2023-12-20T09:56:49;28.90;;;4.82;;
23718;SDS011;43322;52.230;5.702;2023-12-20T09:59:16;24.20;;;4.45;;
23718;SDS011;43322;52.230;5.702;2023-12-20T10:01:43;23.92;;;4.10;;
23718;SDS011;43322;52.230;5.702;2023-12-20T10:04:11;17.92;;;3.85;;
23718;SDS011;43322;52.230;5.702;2023-12-20T10:06:41;21.58;;;4.25;;
23718;SDS011;43322;52.230;5.702;2023-12-20T10:09:09;29.55;;;4.95;;
23718;SDS011;43322;52.230;5.702;2023-12-20T10:11:37;29.70;;;4.88;;
23718;SDS011;43322;52.230;5.702;2023-12-20T10:14:04;19.17;;;4.00;;
23718;SDS011;43322;52.230;5.702;2023-12-20T10:16:31;22.63;;;4.50;;
23718;SDS011;43322;52.230;5.702;2023-12-20T10:18:58;26.17;;;4.20;;
23718;SDS011;43322;52.230;5.702;2023-12-20T10:21:26;22.60;;;4.47;;
23718;SDS011;43322;52.230;5.702;2023-12-20T10:23:55;24.42;;;4.45;;
23718;SDS011;43322;52.230;5.702;2023-12-20T10:26:22;24.00;;;4.22;;
23718;SDS011;43322;52.230;5.702;2023-12-20T10:28:50;20.27;;;5.13;;
23718;SDS011;43322;52.230;5.702;2023-12-20T10:31:27;20.52;;;4.28;;
23718;SDS011;43322;52.230;5.702;2023-12-20T10:33:56;28.08;;;4.53;;
23718;SDS011;43322;52.230;5.702;2023-12-20T10:36:24;21.13;;;3.97;;
23718;SDS011;43322;52.230;5.702;2023-12-20T10:38:52;24.55;;;4.60;;
23718;SDS011;43322;52.230;5.702;2023-12-20T10:41:24;16.40;;;3.85;;
23718;SDS011;43322;52.230;5.702;2023-12-20T10:43:53;20.52;;;4.35;;
23718;SDS011;43322;52.230;5.702;2023-12-20T10:46:22;21.60;;;4.07;;
23718;SDS011;43322;52.230;5.702;2023-12-20T10:48:51;20.27;;;3.92;;
23718;SDS011;43322;52.230;5.702;2023-12-20T10:51:19;21.45;;;3.65;;
23718;SDS011;43322;52.230;5.702;2023-12-20T10:53:48;14.77;;;4.03;;
23718;SDS011;43322;52.230;5.702;2023-12-20T10:56:17;19.98;;;3.85;;
23718;SDS011;43322;52.230;5.702;2023-12-20T10:58:45;15.80;;;3.38;;
23718;SDS011;43322;52.230;5.702;2023-12-20T11:01:13;19.70;;;4.35;;
23718;SDS011;43322;52.230;5.702;2023-12-20T11:03:43;22.17;;;4.25;;
23718;SDS011;43322;52.230;5.702;2023-12-20T11:06:18;22.00;;;4.47;;
23718;SDS011;43322;52.230;5.702;2023-12-20T11:08:55;24.20;;;4.03;;
23718;SDS011;43322;52.230;5.702;2023-12-20T11:11:37;22.88;;;4.32;;
23718;SDS011;43322;52.230;5.702;2023-12-20T11:14:14;22.17;;;3.60;;
23718;SDS011;43322;52.230;5.702;2023-12-20T11:16:45;18.95;;;4.05;;
23718;SDS011;43322;52.230;5.702;2023-12-20T11:19:12;21.70;;;3.58;;
23718;SDS011;43322;52.230;5.702;2023-12-20T11:21:40;17.73;;;3.88;;
23718;SDS011;43322;52.230;5.702;2023-12-20T11:24:07;23.88;;;4.55;;
23718;SDS011;43322;52.230;5.702;2023-12-20T11:26:37;20.58;;;3.83;;
23718;SDS011;43322;52.230;5.702;2023-12-20T11:31:56;17.02;;;4.10;;
23718;SDS011;43322;52.230;5.702;2023-12-20T11:34:23;14.27;;;3.60;;
23718;SDS011;43322;52.230;5.702;2023-12-20T11:36:56;14.32;;;3.50;;
23718;SDS011;43322;52.230;5.702;2023-12-20T11:39:24;12.77;;;3.30;;
23718;SDS011;43322;52.230;5.702;2023-12-20T11:41:55;17.38;;;3.65;;
23718;SDS011;43322;52.230;5.702;2023-12-20T11:44:25;19.73;;;4.18;;
23718;SDS011;43322;52.230;5.702;2023-12-20T11:46:52;16.38;;;3.40;;
23718;SDS011;43322;52.230;5.702;2023-12-20T11:49:22;15.85;;;3.08;;
23718;SDS011;43322;52.230;5.702;2023-12-20T11:51:50;11.90;;;2.70;;
23718;SDS011;43322;52.230;5.702;2023-12-20T11:54:17;13.55;;;3.00;;
23718;SDS011;43322;52.230;5.702;2023-12-20T11:56:44;21.83;;;3.15;;
23718;SDS011;43322;52.230;5.702;2023-12-20T11:59:13;14.48;;;3.75;;
23718;SDS011;43322;52.230;5.702;2023-12-20T12:01:47;8.55;;;2.67;;
23718;SDS011;43322;52.230;5.702;2023-12-20T12:04:15;13.30;;;2.85;;
23718;SDS011;43322;52.230;5.702;2023-12-20T12:06:43;12.38;;;2.95;;
23718;SDS011;43322;52.230;5.702;2023-12-20T12:09:10;16.13;;;2.75;;
23718;SDS011;43322;52.230;5.702;2023-12-20T12:11:37;11.85;;;2.72;;
23718;SDS011;43322;52.230;5.702;2023-12-20T12:14:04;11.73;;;2.85;;
23718;SDS011;43322;52.230;5.702;2023-12-20T12:16:34;13.13;;;3.00;;
23718;SDS011;43322;52.230;5.702;2023-12-20T12:19:01;7.57;;;2.63;;
23718;SDS011;43322;52.230;5.702;2023-12-20T12:21:29;15.38;;;3.60;;
23718;SDS011;43322;52.230;5.702;2023-12-20T12:24:05;13.20;;;2.78;;
23718;SDS011;43322;52.230;5.702;2023-12-20T12:26:33;9.98;;;3.47;;
23718;SDS011;43322;52.230;5.702;2023-12-20T12:29:00;14.38;;;3.17;;
23718;SDS011;43322;52.230;5.702;2023-12-20T12:31:27;11.70;;;2.72;;
23718;SDS011;43322;52.230;5.702;2023-12-20T12:33:56;8.45;;;2.65;;
23718;SDS011;43322;52.230;5.702;2023-12-20T12:36:23;13.30;;;3.00;;
23718;SDS011;43322;52.230;5.702;2023-12-20T12:38:50;9.85;;;2.58;;
23718;SDS011;43322;52.230;5.702;2023-12-20T12:41:17;14.65;;;2.90;;
23718;SDS011;43322;52.230;5.702;2023-12-20T12:43:44;16.67;;;3.80;;
23718;SDS011;43322;52.230;5.702;2023-12-20T12:46:11;13.23;;;2.92;;
23718;SDS011;43322;52.230;5.702;2023-12-20T12:48:38;16.92;;;3.63;;
23718;SDS011;43322;52.230;5.702;2023-12-20T12:51:06;20.73;;;3.75;;
23718;SDS011;43322;52.230;5.702;2023-12-20T12:53:37;9.07;;;2.80;;
23718;SDS011;43322;52.230;5.702;2023-12-20T12:56:04;15.77;;;3.58;;
23718;SDS011;43322;52.230;5.702;2023-12-20T12:58:31;15.50;;;3.17;;
23718;SDS011;43322;52.230;5.702;2023-12-20T13:00:59;12.35;;;3.28;;
23718;SDS011;43322;52.230;5.702;2023-12-20T13:03:25;7.80;;;3.05;;
23718;SDS011;43322;52.230;5.702;2023-12-20T13:05:52;15.63;;;3.58;;
23718;SDS011;43322;52.230;5.702;2023-12-20T13:08:21;14.50;;;2.88;;
23718;SDS011;43322;52.230;5.702;2023-12-20T13:10:48;13.00;;;3.60;;
23718;SDS011;43322;52.230;5.702;2023-12-20T13:13:15;15.43;;;3.30;;
23718;SDS011;43322;52.230;5.702;2023-12-20T13:15:42;9.80;;;2.88;;
23718;SDS011;43322;52.230;5.702;2023-12-20T13:18:15;18.35;;;3.17;;
23718;SDS011;43322;52.230;5.702;2023-12-20T13:20:43;16.08;;;3.20;;
23718;SDS011;43322;52.230;5.702;2023-12-20T13:23:10;15.88;;;3.25;;
23718;SDS011;43322;52.230;5.702;2023-12-20T13:25:38;13.13;;;3.10;;
23718;SDS011;43322;52.230;5.702;2023-12-20T13:28:06;13.63;;;3.40;;
23718;SDS011;43322;52.230;5.702;2023-12-20T13:30:33;15.55;;;3.38;;
23718;SDS011;43322;52.230;5.702;2023-12-20T13:33:00;13.10;;;2.88;;
23718;SDS011;43322;52.230;5.702;2023-12-20T13:35:27;14.40;;;3.53;;
23718;SDS011;43322;52.230;5.702;2023-12-20T13:37:54;17.45;;;3.47;;
23718;SDS011;43322;52.230;5.702;2023-12-20T13:40:22;19.67;;;4.00;;
23718;SDS011;43322;52.230;5.702;2023-12-20T13:42:50;11.50;;;2.97;;
23718;SDS011;43322;52.230;5.702;2023-12-20T13:45:17;15.95;;;2.60;;
23718;SDS011;43322;52.230;5.702;2023-12-20T13:47:44;16.48;;;3.30;;
23718;SDS011;43322;52.230;5.702;2023-12-20T13:50:11;17.35;;;4.00;;
23718;SDS011;43322;52.230;5.702;2023-12-20T13:52:38;11.93;;;3.08;;
23718;SDS011;43322;52.230;5.702;2023-12-20T13:55:05;12.60;;;3.05;;
23718;SDS011;43322;52.230;5.702;2023-12-20T13:57:33;20.67;;;3.33;;
23718;SDS011;43322;52.230;5.702;2023-12-20T14:00:04;16.45;;;2.58;;
23718;SDS011;43322;52.230;5.702;2023-12-20T14:02:38;15.70;;;3.13;;
23718;SDS011;43322;52.230;5.702;2023-12-20T14:05:05;15.82;;;2.63;;
23718;SDS011;43322;52.230;5.702;2023-12-20T14:07:32;15.88;;;2.97;;
23718;SDS011;43322;52.230;5.702;2023-12-20T14:09:59;24.05;;;3.63;;
23718;SDS011;43322;52.230;5.702;2023-12-20T14:12:26;22.58;;;3.22;;
23718;SDS011;43322;52.230;5.702;2023-12-20T14:14:53;18.00;;;3.05;;
23718;SDS011;43322;52.230;5.702;2023-12-20T14:17:22;22.98;;;2.97;;
23718;SDS011;43322;52.230;5.702;2023-12-20T14:19:49;14.75;;;2.88;;
23718;SDS011;43322;52.230;5.702;2023-12-20T14:22:16;23.63;;;3.78;;
23718;SDS011;43322;52.230;5.702;2023-12-20T14:24:43;18.35;;;3.13;;
23718;SDS011;43322;52.230;5.702;2023-12-20T14:27:10;19.90;;;3.17;;
23718;SDS011;43322;52.230;5.702;2023-12-20T14:29:38;13.35;;;3.38;;
23718;SDS011;43322;52.230;5.702;2023-12-20T14:32:05;23.35;;;3.08;;
23718;SDS011;43322;52.230;5.702;2023-12-20T14:34:34;15.52;;;3.03;;
23718;SDS011;43322;52.230;5.702;2023-12-20T14:37:01;13.82;;;3.15;;
23718;SDS011;43322;52.230;5.702;2023-12-20T14:39:29;10.90;;;2.95;;
23718;SDS011;43322;52.230;5.702;2023-12-20T14:41:56;12.52;;;2.75;;